createdAt,value
2022-09-10T00:00:40.787Z,76.50
2022-09-10T00:03:17.054Z,76.60
2022-09-10T00:06:06.242Z,76.60
2022-09-10T00:08:34.582Z,76.70
2022-09-10T00:11:09.561Z,76.80
2022-09-10T00:13:44.126Z,76.70
2022-09-10T00:16:17.688Z,76.70
2022-09-10T00:18:46.782Z,76.90
2022-09-10T00:21:16.566Z,76.90
2022-09-10T00:23:45.842Z,76.80
2022-09-10T00:26:25.045Z,76.90
2022-09-10T00:28:56.045Z,76.90
2022-09-10T00:31:24.880Z,76.90
2022-09-10T00:33:55.237Z,76.90
2022-09-10T00:36:29.145Z,77.00
2022-09-10T00:39:05.740Z,77.10
2022-09-10T00:41:38.739Z,77.20
2022-09-10T00:44:27.481Z,77.20
2022-09-10T00:46:59.748Z,77.40
2022-09-10T00:49:47.265Z,77.50
2022-09-10T00:52:16.136Z,77.50
2022-09-10T00:54:51.465Z,77.60
2022-09-10T00:57:22.780Z,77.60
2022-09-10T00:59:57.915Z,77.90
2022-09-10T01:02:26.733Z,77.80
2022-09-10T01:05:00.125Z,77.90
2022-09-10T01:07:30.942Z,78.00
2022-09-10T01:10:02.524Z,77.90
2022-09-10T01:12:57.141Z,78.00
2022-09-10T01:15:48.235Z,78.10
2022-09-10T01:18:30.760Z,78.20
2022-09-10T01:21:07.445Z,78.30
2022-09-10T01:23:55.302Z,78.60
2022-09-10T01:26:41.573Z,78.70
2022-09-10T01:29:50.896Z,78.80
2022-09-10T01:32:23.427Z,78.90
2022-09-10T01:35:25.386Z,79.00
2022-09-10T01:38:00.981Z,79.10
2022-09-10T01:40:33.256Z,79.20
2022-09-10T01:43:06.462Z,79.30
2022-09-10T01:45:55.600Z,79.50
2022-09-10T01:48:49.543Z,79.60
2022-09-10T01:51:38.491Z,79.50
2022-09-10T01:54:37.250Z,79.50
2022-09-10T01:57:45.358Z,79.60
2022-09-10T02:00:17.016Z,79.80
2022-09-10T02:03:16.561Z,79.70
2022-09-10T02:05:49.284Z,79.70
2022-09-10T02:08:29.236Z,79.90
2022-09-10T02:11:06.566Z,80.00
2022-09-10T02:13:44.768Z,80.10
2022-09-10T02:16:19.006Z,80.10
2022-09-10T02:18:46.848Z,80.30
2022-09-10T02:21:15.645Z,80.30
2022-09-10T02:23:51.008Z,80.40
2022-09-10T02:26:20.227Z,80.50
2022-09-10T02:28:51.813Z,80.60
2022-09-10T02:31:19.911Z,80.80
2022-09-10T02:33:48.523Z,80.80
2022-09-10T02:36:19.142Z,80.70
2022-09-10T02:38:48.122Z,81.00
2022-09-10T02:41:23.338Z,81.10
2022-09-10T02:43:51.255Z,81.20
2022-09-10T02:46:19.318Z,81.40
2022-09-10T02:48:59.343Z,81.40
2022-09-10T02:51:27.351Z,81.60
2022-09-10T02:53:56.356Z,81.50
2022-09-10T02:56:24.332Z,81.70
2022-09-10T02:58:52.254Z,81.70
2022-09-10T03:01:25.848Z,81.90
2022-09-10T03:03:58.668Z,82.20
2022-09-10T03:06:29.124Z,82.40
2022-09-10T03:09:10.119Z,82.30
2022-09-10T03:11:44.505Z,82.60
2022-09-10T03:14:22.119Z,82.60
2022-09-10T03:16:50.195Z,82.80
2022-09-10T03:19:18.871Z,82.70
2022-09-10T03:21:48.364Z,82.90
2022-09-10T03:24:20.030Z,83.10
2022-09-10T03:26:57.468Z,83.00
2022-09-10T03:29:30.259Z,83.00
2022-09-10T03:32:01.545Z,83.00
2022-09-10T03:34:29.493Z,83.30
2022-09-10T03:36:56.816Z,83.30
2022-09-10T03:39:29.553Z,83.30
2022-09-10T03:41:57.949Z,83.30
2022-09-10T03:44:26.099Z,83.30
2022-09-10T03:46:54.224Z,83.40
2022-09-10T03:49:22.008Z,83.40
2022-09-10T03:51:49.601Z,83.40
2022-09-10T03:54:16.979Z,83.50
2022-09-10T03:56:44.994Z,83.50
2022-09-10T03:59:18.334Z,83.60
2022-09-10T04:01:51.214Z,83.50
2022-09-10T04:04:19.012Z,83.60
2022-09-10T04:06:46.581Z,83.60
2022-09-10T04:09:23.559Z,83.40
2022-09-10T04:11:56.655Z,83.40
2022-09-10T04:14:25.661Z,83.40
2022-09-10T04:17:00.992Z,83.30
2022-09-10T04:19:29.801Z,83.30
2022-09-10T04:21:58.293Z,83.20
2022-09-10T04:24:29.317Z,83.10
2022-09-10T04:27:07.153Z,83.00
2022-09-10T04:29:35.229Z,83.10
2022-09-10T04:32:07.003Z,82.90
2022-09-10T04:34:34.610Z,82.90
2022-09-10T04:37:02.582Z,82.80
2022-09-10T04:39:30.533Z,82.60
2022-09-10T04:41:58.654Z,82.40
2022-09-10T04:44:26.755Z,82.30
2022-09-10T04:46:54.392Z,82.00
2022-09-10T04:49:23.606Z,82.00
2022-09-10T04:51:51.522Z,81.70
2022-09-10T04:54:24.194Z,81.70
2022-09-10T04:56:52.601Z,81.60
2022-09-10T04:59:22.544Z,81.40
2022-09-10T05:01:52.949Z,81.40
2022-09-10T05:04:23.923Z,81.40
2022-09-10T05:06:51.420Z,81.30
2022-09-10T05:09:31.969Z,81.10
2022-09-10T05:12:01.420Z,81.10
2022-09-10T05:14:38.426Z,80.90
2022-09-10T05:17:06.562Z,80.80
2022-09-10T05:19:36.687Z,80.80
2022-09-10T05:22:12.309Z,80.60
2022-09-10T05:24:41.208Z,80.60
2022-09-10T05:27:12.165Z,80.40
2022-09-10T05:29:44.151Z,80.10
2022-09-10T05:32:18.521Z,80.00
2022-09-10T05:34:49.102Z,79.60
2022-09-10T05:37:33.587Z,79.50
2022-09-10T05:40:06.865Z,78.90
2022-09-10T05:42:34.545Z,78.60
2022-09-10T05:45:04.070Z,78.50
2022-09-10T05:47:35.722Z,78.70
2022-09-10T05:50:33.610Z,78.20
2022-09-10T05:53:05.103Z,77.90
2022-09-10T05:55:38.039Z,77.70
2022-09-10T05:58:14.145Z,77.30
2022-09-10T06:01:20.288Z,76.50
2022-09-10T06:07:33.974Z,74.60
2022-09-10T06:10:09.249Z,71.00
2022-09-10T06:12:51.219Z,64.40
2022-09-10T06:15:42.563Z,56.80
2022-09-10T06:18:10.611Z,51.40
2022-09-10T06:20:38.463Z,49.50
2022-09-10T06:23:17.529Z,45.40
2022-09-10T06:25:45.253Z,44.10
2022-09-10T06:28:13.132Z,43.30
2022-09-10T06:31:08.604Z,41.00
2022-09-10T06:36:27.046Z,39.60
2022-09-10T06:38:58.301Z,39.00
2022-09-10T06:41:36.715Z,37.10
2022-09-10T06:44:04.445Z,37.60
2022-09-10T06:49:26.118Z,36.60
2022-09-10T06:52:02.856Z,36.60
2022-09-10T06:54:34.079Z,35.60
2022-09-10T06:57:06.988Z,35.80
2022-09-10T06:59:42.340Z,35.00
2022-09-10T07:02:28.233Z,35.00
2022-09-10T07:04:58.940Z,34.80
2022-09-10T07:07:38.260Z,33.70
2022-09-10T07:10:09.017Z,33.90
2022-09-10T07:12:40.516Z,33.40
2022-09-10T07:15:15.911Z,32.80
2022-09-10T07:20:37.530Z,32.60
2022-09-10T07:23:12.721Z,32.50
2022-09-10T07:26:00.336Z,33.10
2022-09-10T07:28:28.452Z,33.60
2022-09-10T07:30:57.283Z,33.80
2022-09-10T07:33:25.361Z,34.30
2022-09-10T07:36:02.238Z,34.10
2022-09-10T07:38:29.793Z,33.80
2022-09-10T07:41:06.001Z,34.30
2022-09-10T07:43:41.105Z,33.90
2022-09-10T07:46:13.808Z,34.20
2022-09-10T07:48:46.371Z,34.30
2022-09-10T07:51:18.176Z,34.20
2022-09-10T07:53:57.753Z,33.70
2022-09-10T07:56:29.408Z,33.00
2022-09-10T07:59:03.277Z,32.90
2022-09-10T08:01:33.064Z,33.20
2022-09-10T08:04:05.170Z,33.30
2022-09-10T08:06:40.383Z,33.30
2022-09-10T08:09:13.797Z,33.40
2022-09-10T08:11:41.924Z,32.90
2022-09-10T08:14:10.313Z,32.80
2022-09-10T08:16:44.647Z,32.90
2022-09-10T08:19:19.192Z,33.50
2022-09-10T08:21:50.072Z,33.30
2022-09-10T08:24:31.150Z,33.10
2022-09-10T08:27:22.558Z,32.80
2022-09-10T08:29:56.869Z,32.70
2022-09-10T08:32:35.568Z,32.50
2022-09-10T08:35:05.239Z,32.80
2022-09-10T08:37:38.226Z,32.10
2022-09-10T08:40:08.251Z,32.50
2022-09-10T08:42:51.482Z,32.60
2022-09-10T08:45:39.797Z,33.00
2022-09-10T08:48:26.386Z,32.90
2022-09-10T08:51:13.342Z,33.20
2022-09-10T08:54:01.683Z,33.60
2022-09-10T08:56:39.406Z,33.10
2022-09-10T08:59:34.312Z,33.50
2022-09-10T09:02:45.185Z,33.70
2022-09-10T09:05:23.647Z,33.90
2022-09-10T09:08:03.113Z,34.10
2022-09-10T09:10:40.380Z,33.70
2022-09-10T09:13:29.575Z,33.30
2022-09-10T09:16:21.811Z,33.20
2022-09-10T09:19:24.248Z,33.70
2022-09-10T09:22:00.179Z,33.90
2022-09-10T09:24:58.086Z,34.00
2022-09-10T09:27:33.163Z,33.90
2022-09-10T09:30:30.692Z,33.60
2022-09-10T09:33:15.592Z,33.30
2022-09-10T09:36:02.206Z,33.20
2022-09-10T09:38:44.473Z,33.50
2022-09-10T09:41:55.701Z,33.40
2022-09-10T09:44:35.010Z,33.90
2022-09-10T09:47:11.708Z,34.30
2022-09-10T09:49:43.606Z,34.90
2022-09-10T09:52:31.970Z,34.80
2022-09-10T09:55:15.538Z,34.90
2022-09-10T09:57:47.618Z,35.00
2022-09-10T10:00:42.160Z,34.90
2022-09-10T10:03:22.637Z,35.10
2022-09-10T10:05:50.534Z,35.40
2022-09-10T10:08:41.838Z,35.50
2022-09-10T10:11:15.759Z,35.60
2022-09-10T10:13:48.726Z,35.30
2022-09-10T10:16:18.331Z,35.30
2022-09-10T10:18:51.735Z,35.50
2022-09-10T10:21:23.660Z,35.60
2022-09-10T10:23:51.462Z,35.20
2022-09-10T10:26:22.465Z,35.40
2022-09-10T10:29:20.986Z,35.60
2022-09-10T10:31:51.304Z,36.30
2022-09-10T10:34:47.568Z,36.70
2022-09-10T10:37:27.602Z,36.80
2022-09-10T10:40:03.944Z,36.90
2022-09-10T10:42:36.080Z,37.10
2022-09-10T10:45:30.600Z,37.60
2022-09-10T10:48:20.719Z,38.00
2022-09-10T10:51:07.648Z,38.10
2022-09-10T10:54:22.837Z,38.30
2022-09-10T10:56:53.456Z,38.60
2022-09-10T10:59:27.904Z,38.80
2022-09-10T11:02:24.904Z,39.50
2022-09-10T11:04:59.771Z,41.00
2022-09-10T11:07:42.554Z,41.30
2022-09-10T11:10:42.635Z,41.10
2022-09-10T11:13:16.580Z,41.50
2022-09-10T11:15:56.139Z,42.00
2022-09-10T11:18:38.559Z,41.90
2022-09-10T11:21:17.852Z,41.70
2022-09-10T11:24:05.428Z,41.90
2022-09-10T11:26:48.505Z,41.70
2022-09-10T11:29:34.671Z,42.20
2022-09-10T11:32:29.141Z,42.40
2022-09-10T11:35:36.326Z,42.30
2022-09-10T11:38:30.237Z,41.90
2022-09-10T11:41:10.474Z,42.30
2022-09-10T11:44:09.137Z,42.10
2022-09-10T11:46:45.663Z,42.20
2022-09-10T11:49:22.162Z,41.80
2022-09-10T11:51:53.451Z,41.90
2022-09-10T11:54:29.507Z,41.40
2022-09-10T11:57:32.806Z,41.30
2022-09-10T12:00:08.877Z,41.80
2022-09-10T12:03:15.890Z,42.10
2022-09-10T12:05:53.640Z,41.90
2022-09-10T12:08:45.682Z,42.10
2022-09-10T12:11:43.006Z,42.00
2022-09-10T12:14:20.026Z,42.50
2022-09-10T12:16:59.927Z,42.50
2022-09-10T12:19:42.541Z,42.10
2022-09-10T12:22:22.798Z,41.30
2022-09-10T12:25:09.356Z,42.00
2022-09-10T12:27:58.881Z,42.70
2022-09-10T12:30:40.023Z,42.70
2022-09-10T12:33:17.354Z,43.10
2022-09-10T12:35:48.223Z,43.00
2022-09-10T12:38:57.254Z,42.50
2022-09-10T12:41:28.323Z,41.80
2022-09-10T12:44:01.458Z,42.40
2022-09-10T12:46:33.554Z,42.30
2022-09-10T12:49:22.282Z,42.20
2022-09-10T12:52:01.117Z,42.30
2022-09-10T12:55:22.693Z,41.70
2022-09-10T12:58:19.319Z,42.30
2022-09-10T13:01:22.588Z,41.90
2022-09-10T13:03:56.391Z,41.50
2022-09-10T13:06:40.561Z,41.00
2022-09-10T13:09:32.136Z,40.40
2022-09-10T13:12:12.202Z,39.90
2022-09-10T13:14:46.077Z,39.60
2022-09-10T13:17:37.574Z,40.00
2022-09-10T13:20:27.074Z,40.10
2022-09-10T13:23:09.063Z,40.30
2022-09-10T13:25:46.520Z,40.40
2022-09-10T13:28:33.175Z,40.50
2022-09-10T13:31:13.672Z,41.80
2022-09-10T13:33:51.556Z,41.50
2022-09-10T13:36:40.959Z,41.60
2022-09-10T13:39:16.974Z,40.70
2022-09-10T13:41:59.181Z,40.60
2022-09-10T13:44:52.728Z,40.90
2022-09-10T13:47:36.729Z,41.20
2022-09-10T13:50:18.711Z,40.30
2022-09-10T13:53:02.814Z,40.10
2022-09-10T13:55:35.114Z,40.30
2022-09-10T13:58:15.339Z,40.90
2022-09-10T14:00:55.501Z,40.90
2022-09-10T14:03:42.745Z,41.40
2022-09-10T14:06:25.411Z,41.10
2022-09-10T14:09:08.149Z,41.00
2022-09-10T14:11:50.066Z,41.50
2022-09-10T14:14:32.354Z,41.40
2022-09-10T14:17:14.513Z,41.90
2022-09-10T14:19:56.356Z,41.40
2022-09-10T14:22:30.020Z,41.40
2022-09-10T14:25:02.947Z,41.00
2022-09-10T14:27:41.244Z,41.20
2022-09-10T14:30:25.452Z,40.90
2022-09-10T14:32:53.703Z,41.70
2022-09-10T14:35:49.980Z,42.30
2022-09-10T14:38:43.161Z,42.50
2022-09-10T14:41:25.052Z,43.00
2022-09-10T14:44:24.140Z,43.60
2022-09-10T14:47:04.206Z,43.40
2022-09-10T14:49:34.905Z,43.60
2022-09-10T14:52:08.559Z,43.90
2022-09-10T14:54:35.750Z,44.30
2022-09-10T14:57:13.565Z,44.20
2022-09-10T14:59:46.570Z,44.40
2022-09-10T15:02:22.559Z,44.30
2022-09-10T15:04:51.951Z,44.30
2022-09-10T15:07:26.890Z,44.40
2022-09-10T15:09:55.473Z,44.60
2022-09-10T15:12:26.427Z,44.70
2022-09-10T15:14:57.401Z,45.20
2022-09-10T15:17:31.213Z,45.00
2022-09-10T15:20:06.834Z,45.40
2022-09-10T15:22:34.381Z,45.40
2022-09-10T15:25:11.928Z,45.10
2022-09-10T15:27:46.124Z,45.50
2022-09-10T15:30:15.401Z,45.80
2022-09-10T15:32:43.483Z,46.10
2022-09-10T15:35:11.533Z,46.20
2022-09-10T15:37:47.128Z,46.40
2022-09-10T15:40:25.458Z,46.50
2022-09-10T15:42:54.082Z,47.70
2022-09-10T15:45:48.809Z,47.50
2022-09-10T15:48:20.845Z,47.90
2022-09-10T15:50:51.225Z,47.70
2022-09-10T15:53:30.944Z,47.50
2022-09-10T15:56:03.732Z,47.90
2022-09-10T15:58:36.645Z,48.00
2022-09-10T16:01:22.528Z,48.20
2022-09-10T16:03:57.269Z,48.20
2022-09-10T16:06:36.252Z,48.30
2022-09-10T16:09:06.537Z,48.50
2022-09-10T16:11:39.403Z,48.70
2022-09-10T16:14:11.997Z,48.70
2022-09-10T16:16:41.284Z,49.10
2022-09-10T16:19:11.180Z,49.20
2022-09-10T16:21:39.599Z,49.50
2022-09-10T16:24:19.540Z,49.70
2022-09-10T16:26:49.558Z,50.00
2022-09-10T16:29:24.591Z,50.00
2022-09-10T16:31:52.354Z,50.30
2022-09-10T16:34:21.099Z,50.60
2022-09-10T16:36:52.261Z,51.10
2022-09-10T16:39:20.446Z,51.00
2022-09-10T16:41:50.251Z,51.40
2022-09-10T16:44:21.282Z,51.70
2022-09-10T16:46:48.999Z,52.00
2022-09-10T16:49:19.069Z,52.10
2022-09-10T16:51:48.195Z,52.70
2022-09-10T16:54:20.053Z,52.70
2022-09-10T16:56:50.867Z,52.70
2022-09-10T16:59:25.648Z,53.00
2022-09-10T17:01:53.483Z,53.40
2022-09-10T17:04:28.562Z,53.60
2022-09-10T17:06:58.317Z,53.60
2022-09-10T17:09:28.949Z,54.30
2022-09-10T17:12:01.661Z,54.60
2022-09-10T17:14:28.828Z,54.90
2022-09-10T17:16:58.786Z,55.10
2022-09-10T17:19:30.613Z,55.30
2022-09-10T17:21:58.462Z,56.20
2022-09-10T17:24:30.755Z,56.30
2022-09-10T17:26:58.276Z,56.40
2022-09-10T17:29:26.800Z,56.70
2022-09-10T17:31:58.549Z,57.00
2022-09-10T17:34:31.048Z,57.20
2022-09-10T17:36:58.547Z,57.10
2022-09-10T17:39:29.400Z,57.50
2022-09-10T17:41:57.225Z,57.40
2022-09-10T17:44:25.311Z,58.00
2022-09-10T17:46:52.597Z,57.90
2022-09-10T17:49:20.202Z,57.80
2022-09-10T17:51:48.018Z,57.90
2022-09-10T17:54:18.573Z,58.10
2022-09-10T17:56:48.394Z,58.60
2022-09-10T17:59:24.241Z,58.90
2022-09-10T18:01:53.046Z,59.00
2022-09-10T18:04:22.100Z,59.10
2022-09-10T18:06:52.407Z,59.30
2022-09-10T18:09:21.060Z,59.60
2022-09-10T18:11:51.845Z,59.70
2022-09-10T18:14:21.891Z,59.70
2022-09-10T18:16:51.661Z,60.00
2022-09-10T18:19:22.385Z,60.40
2022-09-10T18:21:53.177Z,60.40
2022-09-10T18:24:24.833Z,60.50
2022-09-10T18:27:04.646Z,60.60
2022-09-10T18:29:31.905Z,61.00
2022-09-10T18:32:03.373Z,60.90
2022-09-10T18:34:31.552Z,60.90
2022-09-10T18:37:01.512Z,61.00
2022-09-10T18:39:32.280Z,61.00
2022-09-10T18:42:07.283Z,61.40
2022-09-10T18:44:38.880Z,61.20
2022-09-10T18:47:28.048Z,61.40
2022-09-10T18:50:01.552Z,61.20
2022-09-10T18:52:36.541Z,61.40
2022-09-10T18:55:06.331Z,61.50
2022-09-10T18:57:42.372Z,61.60
2022-09-10T19:00:17.419Z,61.60
2022-09-10T19:02:48.771Z,61.80
2022-09-10T19:05:22.268Z,61.90
2022-09-10T19:07:50.158Z,62.00
2022-09-10T19:10:18.043Z,62.20
2022-09-10T19:12:49.459Z,62.10
2022-09-10T19:15:19.285Z,62.40
2022-09-10T19:17:50.336Z,62.40
2022-09-10T19:20:24.584Z,62.60
2022-09-10T19:22:52.106Z,62.70
2022-09-10T19:25:23.761Z,62.90
2022-09-10T19:27:51.049Z,63.10
2022-09-10T19:30:19.430Z,63.20
2022-09-10T19:32:47.629Z,63.50
2022-09-10T19:35:25.018Z,63.50
2022-09-10T19:37:53.249Z,63.70
2022-09-10T19:40:21.231Z,63.90
2022-09-10T19:42:49.028Z,63.90
2022-09-10T19:45:19.199Z,64.00
2022-09-10T19:47:46.968Z,64.10
2022-09-10T19:50:21.429Z,64.40
2022-09-10T19:52:53.866Z,64.30
2022-09-10T19:55:27.603Z,64.50
2022-09-10T19:58:03.254Z,64.70
2022-09-10T20:00:46.359Z,64.80
2022-09-10T20:03:17.415Z,65.70
2022-09-10T20:05:49.533Z,65.90
2022-09-10T20:08:17.337Z,65.90
2022-09-10T20:11:02.130Z,66.10
2022-09-10T20:13:40.021Z,66.30
2022-09-10T20:16:14.332Z,66.40
2022-09-10T20:18:43.050Z,66.50
2022-09-10T20:21:26.275Z,66.80
2022-09-10T20:24:02.876Z,67.00
2022-09-10T20:26:34.883Z,67.20
2022-09-10T20:29:07.400Z,67.10
2022-09-10T20:31:43.571Z,67.20
2022-09-10T20:34:20.141Z,67.60
2022-09-10T20:36:52.524Z,67.40
2022-09-10T20:39:28.280Z,68.00
2022-09-10T20:42:00.812Z,68.10
2022-09-10T20:44:29.819Z,68.00
2022-09-10T20:47:00.619Z,67.90
2022-09-10T20:49:31.392Z,68.10
2022-09-10T20:51:59.773Z,68.60
2022-09-10T20:54:27.555Z,68.90
2022-09-10T20:56:57.294Z,68.70
2022-09-10T20:59:27.711Z,69.20
2022-09-10T21:01:57.141Z,69.30
2022-09-10T21:04:27.558Z,69.60
2022-09-10T21:06:59.661Z,69.70
2022-09-10T21:09:33.522Z,69.80
2022-09-10T21:12:01.136Z,69.70
2022-09-10T21:14:29.313Z,69.90
2022-09-10T21:17:02.051Z,70.20
2022-09-10T21:19:30.200Z,70.10
2022-09-10T21:21:57.583Z,70.10
2022-09-10T21:24:33.645Z,70.40
2022-09-10T21:27:10.122Z,70.30
2022-09-10T21:29:47.281Z,70.50
2022-09-10T21:32:18.553Z,70.60
2022-09-10T21:34:46.010Z,70.80
2022-09-10T21:37:14.296Z,70.80
2022-09-10T21:39:47.927Z,70.90
2022-09-10T21:42:23.215Z,71.30
2022-09-10T21:44:55.775Z,71.10
2022-09-10T21:47:23.585Z,71.30
2022-09-10T21:49:57.519Z,71.30
2022-09-10T21:52:25.046Z,71.50
2022-09-10T21:54:57.417Z,71.30
2022-09-10T21:57:25.515Z,71.50
2022-09-10T21:59:53.628Z,71.70
2022-09-10T22:02:22.109Z,71.80
2022-09-10T22:04:49.707Z,71.80
2022-09-10T22:07:19.716Z,71.90
2022-09-10T22:09:48.313Z,72.00
2022-09-10T22:12:15.912Z,72.00
2022-09-10T22:14:43.944Z,72.00
2022-09-10T22:17:11.782Z,72.10
2022-09-10T22:19:39.514Z,72.20
2022-09-10T22:22:06.870Z,72.20
2022-09-10T22:24:38.633Z,72.40
2022-09-10T22:27:07.201Z,72.40
2022-09-10T22:29:39.170Z,72.40
2022-09-10T22:32:06.637Z,72.50
2022-09-10T22:34:34.127Z,72.50
2022-09-10T22:37:03.502Z,72.80
2022-09-10T22:39:34.497Z,72.80
2022-09-10T22:42:05.229Z,72.80
2022-09-10T22:44:41.345Z,73.00
2022-09-10T22:47:09.216Z,73.00
2022-09-10T22:49:39.153Z,73.00
2022-09-10T22:52:12.410Z,73.20
2022-09-10T22:54:46.919Z,73.10
2022-09-10T22:57:14.272Z,73.00
2022-09-10T22:59:47.194Z,73.20
2022-09-10T23:02:18.346Z,73.20
2022-09-10T23:04:45.740Z,73.10
2022-09-10T23:07:25.880Z,73.30
2022-09-10T23:09:53.364Z,73.20
2022-09-10T23:12:24.993Z,73.30
2022-09-10T23:14:53.674Z,73.40
2022-09-10T23:17:24.673Z,73.50
2022-09-10T23:19:53.668Z,73.40
2022-09-10T23:22:22.516Z,73.50
2022-09-10T23:24:49.925Z,73.40
2022-09-10T23:27:18.052Z,73.50
2022-09-10T23:29:45.506Z,73.60
2022-09-10T23:32:15.348Z,73.70
2022-09-10T23:34:44.851Z,73.70
2022-09-10T23:37:12.694Z,73.70
2022-09-10T23:39:47.416Z,73.80
2022-09-10T23:42:16.788Z,73.90
2022-09-10T23:44:47.309Z,73.70
2022-09-10T23:47:23.774Z,73.70
2022-09-10T23:49:54.192Z,73.60
2022-09-10T23:52:31.070Z,73.70
2022-09-10T23:55:03.560Z,73.80
2022-09-10T23:57:31.136Z,73.80
